Main page
METAR-TAF:

METAR-TAF

Airports :

Nuremberg, Germany

Nuremberg Airport

latitude: 49-30N, longitude: 011-03E, elevation: 318 m

Current weather observation

The report was made 29 minutes ago, at 22:20 UTC
Wind 5 kt from the East/Southeast
Temperature 5°C
Humidity 75%
Pressure 1019 hPa
Visibility 10 km or more
no clouds below 1500 m and no cumulonimbus

METAR: EDDN 262220Z 11005KT CAVOK 05/01 Q1019

Time: 00:49 (22:49 UTC)

Forecast

The report was made 5 hours and 49 minutes ago, at 17:00 UTC
Forecast valid from 26 at 18 UTC to 27 at 18 UTC
Wind 5 kt from the West
Visibility 10 km or more
no clouds below 1500 m and no cumulonimbus
Becoming
from 26 at 21 UTC to 26 at 23 UTC
Wind 3 kt from the Southeast
Becoming
from 27 at 09 UTC to 27 at 11 UTC
Wind 8 kt from the Southeast
Becoming
from 27 at 16 UTC to 27 at 18 UTC
Wind 3 kt from the South/Southeast

TAF: EDDN 261700Z 2618/2718 27005KT CAVOK BECMG 2621/2623 13003KT BECMG 2709/2711 13008KT BECMG 2716/2718 15003KT

Weather observations and forecasts of more than 4000 airports (METAR and TAF reports).

The available stations are represented by yellow and red dots on the map.

Hover mouse over dot to see the name of the station.

Then click to see weather observations and forecasts.

To change the map : click on the green buttons with a black cross to zoom in, on the green button with a dash to zoom out, or on the green arrows for adjacent maps.


METAR-TAF: